Time;durP1;ratioP1;P1;durP2;ratioP2;P2;SDS_P1;SDS_P2;PMS_P1;PMS_P2;Temp;Humidity;BMP_temperature;BMP_pressure;BME280_temperature;BME280_humidity;BME280_pressure;Samples;Min_cycle;Max_cycle;Signal;HPM_P1;HPM_P2
2021/12/15 00:00:59;;;;;;;9.90;5.83;;;6.80;99.90;;;;;;5117153;28;20465;-63
2021/12/15 00:03:26;;;;;;;9.63;4.20;;;6.70;99.90;;;;;;5116988;28;20472;-63
2021/12/15 00:05:54;;;;;;;8.87;4.47;;;6.70;99.90;;;;;;5117027;28;20953;-63
2021/12/15 00:08:24;;;;;;;6.70;3.70;;;6.70;99.90;;;;;;5117335;28;20488;-63
2021/12/15 00:10:51;;;;;;;16.73;5.43;;;6.80;99.90;;;;;;5116912;28;20501;-63
2021/12/15 00:13:21;;;;;;;11.10;4.53;;;6.90;99.90;;;;;;5117012;28;20546;-63
2021/12/15 00:15:52;;;;;;;10.60;4.60;;;6.80;99.90;;;;;;5116958;28;20566;-63
2021/12/15 00:18:18;;;;;;;9.10;4.20;;;6.80;99.90;;;;;;5115931;28;20488;-63
2021/12/15 00:20:45;;;;;;;9.90;5.33;;;6.80;99.90;;;;;;5117075;28;20536;-62
2021/12/15 00:23:12;;;;;;;11.40;6.20;;;6.80;99.90;;;;;;5116744;28;20539;-62
2021/12/15 00:25:42;;;;;;;10.47;4.07;;;6.70;99.90;;;;;;5116702;28;20532;-63
2021/12/15 00:28:10;;;;;;;11.97;4.90;;;6.70;99.90;;;;;;5117078;28;20551;-62
2021/12/15 00:30:40;;;;;;;14.10;5.00;;;6.70;99.90;;;;;;5116788;28;20437;-63
2021/12/15 00:33:09;;;;;;;8.33;3.77;;;6.70;99.90;;;;;;5116781;28;20822;-63
2021/12/15 00:35:37;;;;;;;10.97;4.50;;;6.70;99.90;;;;;;5116541;28;20516;-63
2021/12/15 00:38:05;;;;;;;11.80;5.43;;;6.60;99.90;;;;;;5115839;28;20488;-62
2021/12/15 00:40:32;;;;;;;12.23;5.60;;;6.70;99.90;;;;;;5116369;28;20540;-63
2021/12/15 00:43:02;;;;;;;15.07;6.27;;;6.70;99.90;;;;;;5116796;28;20488;-63
2021/12/15 00:45:30;;;;;;;12.43;4.10;;;6.70;99.90;;;;;;5116639;28;20488;-63
2021/12/15 00:47:57;;;;;;;12.60;3.13;;;6.70;99.90;;;;;;5114466;28;20495;-63
2021/12/15 00:50:32;;;;;;;11.23;4.40;;;6.80;99.90;;;;;;5114810;28;20494;-63
2021/12/15 00:52:59;;;;;;;9.97;3.77;;;6.80;99.90;;;;;;5114228;28;20513;-63
2021/12/15 00:55:29;;;;;;;8.17;4.00;;;6.80;99.90;;;;;;5114242;28;20872;-64
2021/12/15 00:57:56;;;;;;;14.30;4.23;;;6.70;99.90;;;;;;5115019;28;20492;-64
2021/12/15 01:00:26;;;;;;;8.50;3.40;;;6.80;99.90;;;;;;5115805;28;20944;-64
2021/12/15 01:02:54;;;;;;;6.83;2.87;;;6.80;99.90;;;;;;5116014;28;20476;-64
2021/12/15 01:05:26;;;;;;;14.13;4.37;;;6.90;99.90;;;;;;5114437;28;20485;-64
2021/12/15 01:07:54;;;;;;;11.30;3.87;;;7.00;99.90;;;;;;5112727;28;20509;-64
2021/12/15 01:10:29;;;;;;;5.77;2.90;;;7.10;99.90;;;;;;5112070;28;20445;-64
2021/12/15 01:21:26;;;;;;;6.00;2.97;;;7.00;99.90;;;;;;5114284;28;20411;-66
2021/12/15 01:23:53;;;;;;;10.63;5.07;;;6.90;99.90;;;;;;5115561;28;20556;-64
2021/12/15 01:26:20;;;;;;;7.73;3.00;;;6.80;99.90;;;;;;5116697;28;20751;-64
2021/12/15 01:28:47;;;;;;;9.20;4.30;;;6.80;99.90;;;;;;5118025;28;20530;-63
2021/12/15 01:31:15;;;;;;;7.77;2.60;;;6.80;99.90;;;;;;5120216;28;20498;-63
2021/12/15 01:33:43;;;;;;;6.30;3.10;;;6.90;99.90;;;;;;5120263;28;20551;-63
2021/12/15 01:36:12;;;;;;;9.40;3.77;;;6.90;99.90;;;;;;5120379;28;20508;-64
2021/12/15 01:38:43;;;;;;;7.90;3.07;;;6.90;99.90;;;;;;5112610;28;20607;-64
2021/12/15 01:41:18;;;;;;;9.63;4.83;;;6.90;99.90;;;;;;5099816;28;20543;-64
2021/12/15 01:46:51;;;;;;;7.83;4.33;;;6.80;99.90;;;;;;5099939;28;20552;-64
2021/12/15 01:46:55;;;;;;;5.73;3.80;;;6.70;99.90;;;;;;5099289;28;20434;-65
2021/12/15 01:49:27;;;;;;;10.43;3.70;;;6.70;99.90;;;;;;5098828;28;20441;-62
2021/12/15 01:51:55;;;;;;;6.93;3.30;;;6.80;99.90;;;;;;5099700;28;20485;-64
2021/12/15 01:54:24;;;;;;;9.00;3.30;;;6.80;99.90;;;;;;5099852;28;20585;-64
2021/12/15 01:56:52;;;;;;;10.37;4.23;;;6.80;99.90;;;;;;5099327;28;20513;-64
2021/12/15 01:59:22;;;;;;;7.07;3.17;;;6.70;99.90;;;;;;5098953;28;20492;-64
2021/12/15 02:01:49;;;;;;;6.63;3.27;;;6.70;99.90;;;;;;5099553;28;20481;-63
2021/12/15 02:04:19;;;;;;;8.63;4.13;;;6.70;99.90;;;;;;5099050;28;20545;-64
2021/12/15 02:06:48;;;;;;;8.90;4.20;;;6.70;99.90;;;;;;5099176;28;20529;-63
2021/12/15 02:09:24;;;;;;;12.80;4.37;;;6.70;99.90;;;;;;5099736;28;20433;-64
2021/12/15 02:11:53;;;;;;;12.37;4.67;;;6.80;99.90;;;;;;5098840;28;20449;-64
2021/12/15 02:14:20;;;;;;;7.80;3.60;;;6.80;99.90;;;;;;5098541;28;20445;-64
2021/12/15 02:16:47;;;;;;;11.00;3.20;;;6.80;99.90;;;;;;5097814;28;20480;-63
2021/12/15 02:19:15;;;;;;;8.13;3.20;;;6.80;99.90;;;;;;5098194;28;20485;-63
2021/12/15 02:21:43;;;;;;;14.27;4.23;;;6.80;99.90;;;;;;5098913;28;20903;-63
2021/12/15 02:24:10;;;;;;;8.43;3.50;;;6.80;99.90;;;;;;5098207;28;20540;-64
2021/12/15 02:26:44;;;;;;;7.97;3.90;;;6.70;99.90;;;;;;5097323;28;20533;-64
2021/12/15 02:29:16;;;;;;;10.47;3.97;;;6.70;99.90;;;;;;5097086;28;20456;-64
2021/12/15 02:31:57;;;;;;;10.93;4.10;;;6.60;99.90;;;;;;5097296;28;20781;-64
2021/12/15 02:34:54;;;;;;;5.10;2.90;;;6.60;99.90;;;;;;5096071;28;20573;-64
2021/12/15 02:37:21;;;;;;;8.63;3.13;;;6.70;99.90;;;;;;5095300;28;20512;-64
2021/12/15 02:39:51;;;;;;;9.77;3.53;;;6.70;99.90;;;;;;5094346;28;20962;-65
2021/12/15 02:42:20;;;;;;;8.90;4.33;;;6.70;99.90;;;;;;5095198;28;20559;-64
2021/12/15 02:44:47;;;;;;;7.77;4.30;;;6.70;99.90;;;;;;5095113;28;20944;-64
2021/12/15 02:47:15;;;;;;;11.80;4.60;;;6.70;99.90;;;;;;5095218;28;20959;-64
2021/12/15 02:49:43;;;;;;;10.83;4.10;;;6.70;99.90;;;;;;5095105;28;20442;-64
2021/12/15 02:52:10;;;;;;;8.13;3.33;;;6.70;99.90;;;;;;5095245;28;20835;-64
2021/12/15 02:54:39;;;;;;;9.50;3.17;;;6.80;99.90;;;;;;5095342;28;20525;-63
2021/12/15 02:57:10;;;;;;;9.83;2.90;;;6.80;99.90;;;;;;5096855;28;20584;-64
2021/12/15 02:59:48;;;;;;;9.20;4.30;;;6.80;99.90;;;;;;5098066;28;20510;-64
2021/12/15 03:02:36;;;;;;;6.27;3.90;;;6.80;99.90;;;;;;5098324;28;20493;-64
2021/12/15 03:05:08;;;;;;;7.47;2.67;;;6.80;99.90;;;;;;5098609;28;20450;-64
2021/12/15 03:07:43;;;;;;;6.47;3.50;;;6.70;99.90;;;;;;5098113;28;20911;-64
2021/12/15 03:15:39;;;;;;;10.03;3.57;;;6.80;99.90;;;;;;5096208;28;20417;-64
2021/12/15 03:18:10;;;;;;;7.47;3.70;;;6.90;99.90;;;;;;5096176;28;20576;-64
2021/12/15 03:20:41;;;;;;;10.27;3.90;;;6.90;99.90;;;;;;5095258;28;20532;-64
2021/12/15 03:23:11;;;;;;;8.90;3.53;;;6.90;99.90;;;;;;5095232;28;20503;-64
2021/12/15 03:25:40;;;;;;;9.57;4.50;;;6.90;99.90;;;;;;5095338;28;20456;-64
2021/12/15 03:33:57;;;;;;;9.80;3.70;;;6.80;99.90;;;;;;5095821;28;20433;-62
2021/12/15 03:36:38;;;;;;;5.03;2.23;;;6.70;99.90;;;;;;5096986;28;20636;-64
2021/12/15 03:39:07;;;;;;;7.40;3.00;;;6.70;99.90;;;;;;5096810;28;20481;-64
2021/12/15 03:41:35;;;;;;;4.80;2.47;;;6.70;99.90;;;;;;5096449;28;20485;-63
2021/12/15 03:44:05;;;;;;;5.97;1.67;;;6.80;99.90;;;;;;5096855;28;20473;-64
2021/12/15 03:46:33;;;;;;;4.93;1.87;;;6.80;99.90;;;;;;5096076;28;20521;-65
2021/12/15 03:49:00;;;;;;;3.70;1.40;;;6.90;99.90;;;;;;5095691;28;20899;-62
2021/12/15 03:51:27;;;;;;;2.77;1.17;;;6.90;99.90;;;;;;5095680;28;20810;-64
2021/12/15 03:53:54;;;;;;;3.80;1.73;;;7.00;99.90;;;;;;5096250;28;20794;-64
2021/12/15 03:56:21;;;;;;;4.67;1.33;;;7.00;99.90;;;;;;5095911;28;20473;-65
2021/12/15 03:58:50;;;;;;;4.70;1.70;;;7.10;99.90;;;;;;5096152;28;20545;-63
2021/12/15 04:01:21;;;;;;;2.57;1.30;;;7.10;99.90;;;;;;5095844;28;20473;-63
2021/12/15 04:03:54;;;;;;;2.13;1.27;;;7.10;99.90;;;;;;5095701;28;20450;-63
2021/12/15 04:06:25;;;;;;;2.30;1.00;;;7.00;99.90;;;;;;5095822;28;20484;-65
2021/12/15 04:09:04;;;;;;;4.87;1.77;;;6.90;99.90;;;;;;5096133;28;20545;-62
2021/12/15 04:11:36;;;;;;;1.67;0.80;;;6.90;99.90;;;;;;5095071;28;20915;-64
2021/12/15 04:14:09;;;;;;;2.50;0.90;;;6.80;99.90;;;;;;5095174;28;20542;-64
2021/12/15 04:16:45;;;;;;;1.00;0.63;;;6.80;99.90;;;;;;5095372;28;20916;-64
2021/12/15 04:19:20;;;;;;;2.47;0.80;;;6.70;99.90;;;;;;5094844;28;20445;-64
2021/12/15 04:21:48;;;;;;;2.27;0.80;;;6.80;99.90;;;;;;5095787;28;20468;-64
2021/12/15 04:24:17;;;;;;;1.00;0.60;;;6.90;99.90;;;;;;5096481;28;20476;-64
2021/12/15 04:26:46;;;;;;;1.47;0.70;;;6.80;99.90;;;;;;5096386;28;20533;-64
2021/12/15 04:29:19;;;;;;;1.27;0.67;;;6.90;99.90;;;;;;5095673;28;20815;-64
2021/12/15 04:31:50;;;;;;;2.20;0.83;;;6.90;99.90;;;;;;5096144;28;20445;-64
2021/12/15 04:34:17;;;;;;;1.40;0.90;;;7.10;99.90;;;;;;5096224;28;20477;-64
2021/12/15 04:36:47;;;;;;;1.67;0.70;;;6.90;99.90;;;;;;5095672;28;20569;-64
2021/12/15 04:39:16;;;;;;;1.93;0.80;;;6.80;99.90;;;;;;5096297;28;20469;-64
2021/12/15 04:41:47;;;;;;;1.77;0.90;;;6.80;99.90;;;;;;5095804;28;20485;-62
2021/12/15 04:44:15;;;;;;;2.20;0.87;;;6.80;99.90;;;;;;5095027;28;20451;-63
2021/12/15 04:46:48;;;;;;;1.50;0.87;;;6.80;99.90;;;;;;5096435;28;20488;-62
2021/12/15 04:49:18;;;;;;;1.93;0.90;;;6.80;99.90;;;;;;5094080;28;20506;-62
2021/12/15 04:51:47;;;;;;;1.87;0.90;;;6.70;99.90;;;;;;5094055;28;20490;-63
2021/12/15 04:54:14;;;;;;;1.50;1.07;;;6.70;99.90;;;;;;5093893;28;20861;-62
2021/12/15 04:56:41;;;;;;;1.20;0.70;;;6.70;99.90;;;;;;5093365;28;20477;-62
2021/12/15 04:59:09;;;;;;;1.60;0.80;;;6.70;99.90;;;;;;5093922;28;20473;-62
2021/12/15 05:01:37;;;;;;;1.77;0.80;;;6.70;99.90;;;;;;5093859;28;20557;-63
2021/12/15 05:04:05;;;;;;;1.60;0.90;;;6.70;99.90;;;;;;5094360;28;20480;-63
2021/12/15 05:06:33;;;;;;;1.87;0.83;;;6.70;99.90;;;;;;5096111;28;20819;-63
2021/12/15 05:09:00;;;;;;;1.90;1.00;;;6.70;99.90;;;;;;5095692;28;20520;-63
2021/12/15 05:11:28;;;;;;;1.60;1.00;;;6.70;99.90;;;;;;5094839;28;20907;-63
2021/12/15 05:13:55;;;;;;;1.90;0.90;;;6.70;99.90;;;;;;5096042;28;20543;-63
2021/12/15 05:16:22;;;;;;;1.10;0.80;;;6.70;99.90;;;;;;5095976;28;20481;-63
2021/12/15 05:18:49;;;;;;;3.70;0.90;;;6.80;99.90;;;;;;5095784;28;20580;-63
2021/12/15 05:21:18;;;;;;;1.37;0.90;;;6.80;99.90;;;;;;5095652;28;20760;-63
2021/12/15 05:23:49;;;;;;;2.60;1.10;;;6.80;99.90;;;;;;5095684;28;20840;-60
2021/12/15 05:26:16;;;;;;;3.87;0.90;;;6.80;99.90;;;;;;5095936;28;20903;-61
2021/12/15 05:28:43;;;;;;;1.13;0.80;;;6.70;99.90;;;;;;5094141;28;20485;-61
2021/12/15 05:31:10;;;;;;;3.40;1.20;;;6.70;99.90;;;;;;5091936;28;20892;-61
2021/12/15 05:33:37;;;;;;;2.07;1.10;;;6.70;99.90;;;;;;5093007;28;20551;-61
2021/12/15 05:36:05;;;;;;;3.50;2.03;;;6.70;99.90;;;;;;5092924;28;20549;-61
2021/12/15 05:38:34;;;;;;;1.73;0.93;;;6.70;99.90;;;;;;5093308;28;20508;-61
2021/12/15 05:41:01;;;;;;;2.53;1.10;;;6.70;99.90;;;;;;5093367;28;20787;-61
2021/12/15 05:43:28;;;;;;;1.20;0.80;;;6.70;99.90;;;;;;5093077;28;20578;-61
2021/12/15 05:45:55;;;;;;;1.90;0.90;;;6.70;99.90;;;;;;5094173;28;20481;-61
2021/12/15 05:48:22;;;;;;;1.67;0.90;;;6.70;99.90;;;;;;5093611;28;20545;-61
2021/12/15 05:50:51;;;;;;;1.70;0.97;;;6.70;99.90;;;;;;5093649;28;20953;-61
2021/12/15 05:53:19;;;;;;;1.50;1.00;;;6.70;99.90;;;;;;5094872;28;20511;-62
2021/12/15 05:55:47;;;;;;;1.93;0.83;;;6.70;99.90;;;;;;5094900;28;20480;-61
2021/12/15 05:58:14;;;;;;;1.20;0.70;;;6.80;99.90;;;;;;5095190;28;20990;-62
2021/12/15 06:00:43;;;;;;;1.10;0.70;;;6.80;99.90;;;;;;5093610;28;20537;-61
2021/12/15 06:03:10;;;;;;;0.83;0.60;;;6.80;99.90;;;;;;5093534;28;20552;-61
2021/12/15 06:05:38;;;;;;;2.63;0.90;;;6.80;99.90;;;;;;5093058;28;20975;-62
2021/12/15 06:08:07;;;;;;;1.00;0.60;;;6.80;99.90;;;;;;5093773;28;20917;-60
2021/12/15 06:10:37;;;;;;;0.90;0.80;;;6.80;99.90;;;;;;5095226;28;20528;-60
2021/12/15 06:13:07;;;;;;;3.30;1.10;;;6.80;99.90;;;;;;5095315;28;20806;-60
2021/12/15 06:15:35;;;;;;;2.30;1.10;;;6.70;99.90;;;;;;5097190;28;20465;-61
2021/12/15 06:18:05;;;;;;;2.10;1.10;;;6.70;99.90;;;;;;5097211;28;20502;-61
2021/12/15 06:20:33;;;;;;;2.00;1.10;;;6.70;99.90;;;;;;5095917;28;20564;-64
2021/12/15 06:23:05;;;;;;;2.60;1.40;;;6.70;99.90;;;;;;5096560;28;20539;-64
2021/12/15 06:25:32;;;;;;;2.33;1.30;;;6.70;99.90;;;;;;5096709;28;20445;-65
2021/12/15 06:27:59;;;;;;;4.50;1.30;;;6.70;99.90;;;;;;5096376;28;20802;-64
2021/12/15 06:30:28;;;;;;;2.80;1.73;;;6.70;99.90;;;;;;5095663;28;20536;-64
2021/12/15 06:32:55;;;;;;;3.33;1.73;;;6.70;99.90;;;;;;5096395;28;20548;-62
2021/12/15 06:35:22;;;;;;;3.00;1.10;;;6.70;99.90;;;;;;5097090;28;20521;-63
2021/12/15 06:37:49;;;;;;;1.80;1.10;;;6.70;99.90;;;;;;5097207;28;20555;-62
2021/12/15 06:40:17;;;;;;;2.13;0.97;;;6.70;99.90;;;;;;5117896;28;20473;-62
2021/12/15 06:42:44;;;;;;;1.70;1.13;;;6.80;99.90;;;;;;5117979;28;20805;-62
2021/12/15 06:45:21;;;;;;;2.80;1.10;;;6.70;99.90;;;;;;5118113;28;20894;-63
2021/12/15 06:58:49;;;;;;;5.20;2.43;;;6.70;99.90;;;;;;5117016;28;20534;-62
2021/12/15 07:01:16;;;;;;;1.90;1.20;;;6.70;99.90;;;;;;5115992;28;20535;-63
2021/12/15 07:03:45;;;;;;;2.70;1.50;;;6.70;99.90;;;;;;5112807;28;20543;-63
2021/12/15 07:06:12;;;;;;;2.67;1.43;;;6.70;99.90;;;;;;5113093;28;20536;-63
2021/12/15 07:08:39;;;;;;;2.20;1.27;;;6.70;99.90;;;;;;5112237;28;20907;-62
2021/12/15 07:11:06;;;;;;;3.40;1.80;;;6.70;99.90;;;;;;5112217;28;20864;-64
2021/12/15 07:13:33;;;;;;;2.93;1.10;;;6.60;99.90;;;;;;5111994;28;20892;-62
2021/12/15 07:16:04;;;;;;;1.83;1.20;;;6.60;99.90;;;;;;5113054;28;20484;-62
2021/12/15 07:18:43;;;;;;;1.70;1.10;;;6.60;99.90;;;;;;5109450;28;20485;-62
2021/12/15 07:21:17;;;;;;;1.90;1.00;;;6.60;99.90;;;;;;5106768;28;20684;-62
2021/12/15 07:23:45;;;;;;;2.17;1.10;;;6.60;99.90;;;;;;5111018;28;20673;-61
2021/12/15 07:26:12;;;;;;;3.07;1.30;;;6.60;99.90;;;;;;5111818;28;20811;-61
2021/12/15 07:28:40;;;;;;;4.50;2.00;;;6.60;99.90;;;;;;5111816;28;20747;-61
2021/12/15 07:31:07;;;;;;;3.27;1.40;;;6.60;99.90;;;;;;5109122;28;20888;-61
2021/12/15 07:33:35;;;;;;;3.63;1.33;;;6.60;99.90;;;;;;5112908;28;20480;-61
2021/12/15 07:36:05;;;;;;;3.67;2.00;;;6.60;99.90;;;;;;5115677;28;20730;-61
2021/12/15 07:38:34;;;;;;;4.13;1.67;;;6.70;99.90;;;;;;5111362;28;20835;-61
2021/12/15 07:41:03;;;;;;;7.40;2.73;;;6.70;99.90;;;;;;5108032;28;20760;-61
2021/12/15 07:43:30;;;;;;;3.50;1.73;;;6.70;99.90;;;;;;5115073;28;21071;-62
2021/12/15 07:46:00;;;;;;;3.63;1.90;;;6.50;99.90;;;;;;5109337;28;20540;-62
2021/12/15 07:48:31;;;;;;;3.47;1.50;;;6.60;99.90;;;;;;5113081;28;20476;-62
2021/12/15 07:51:00;;;;;;;4.23;1.90;;;6.50;99.90;;;;;;5113180;28;20485;-62
2021/12/15 07:53:27;;;;;;;4.00;1.93;;;6.50;99.90;;;;;;5111515;28;20837;-61
2021/12/15 07:55:56;;;;;;;4.30;1.80;;;6.50;99.90;;;;;;5112027;28;20527;-62
2021/12/15 07:58:25;;;;;;;2.53;1.23;;;6.50;99.90;;;;;;5111099;28;20845;-61
2021/12/15 08:00:55;;;;;;;4.47;1.60;;;6.50;99.90;;;;;;5104947;28;20540;-61
2021/12/15 08:03:23;;;;;;;4.03;1.70;;;6.50;99.90;;;;;;5114283;28;20474;-61
2021/12/15 08:05:51;;;;;;;3.37;2.13;;;6.60;99.90;;;;;;5114792;28;20456;-62
2021/12/15 08:08:18;;;;;;;2.73;1.30;;;6.60;99.90;;;;;;5111062;28;20476;-61
2021/12/15 08:10:47;;;;;;;5.47;1.23;;;6.60;99.90;;;;;;5113766;28;20469;-62
2021/12/15 08:13:17;;;;;;;3.10;1.40;;;6.60;99.90;;;;;;5112394;28;20749;-61
2021/12/15 08:15:44;;;;;;;2.43;1.60;;;6.60;99.90;;;;;;5111275;28;20486;-62
2021/12/15 08:18:11;;;;;;;4.03;1.47;;;6.60;99.90;;;;;;5111140;28;20706;-61
2021/12/15 08:20:41;;;;;;;3.83;1.20;;;6.60;99.90;;;;;;5110421;28;20970;-60
2021/12/15 08:23:09;;;;;;;6.03;1.57;;;6.60;99.90;;;;;;5108217;28;20452;-60
2021/12/15 08:25:41;;;;;;;3.60;0.90;;;6.60;99.90;;;;;;5113502;28;20452;-60
2021/12/15 08:28:09;;;;;;;4.03;1.53;;;6.60;99.90;;;;;;5113162;28;20883;-62
2021/12/15 08:30:39;;;;;;;3.13;1.27;;;6.60;99.90;;;;;;5110363;28;20547;-59
2021/12/15 08:33:08;;;;;;;3.40;1.10;;;6.60;99.90;;;;;;5110736;28;20543;-62
2021/12/15 08:35:39;;;;;;;4.47;1.83;;;6.60;99.90;;;;;;5112450;28;20489;-59
2021/12/15 08:38:09;;;;;;;2.80;1.20;;;6.60;99.90;;;;;;5109633;28;20568;-60
2021/12/15 08:40:36;;;;;;;1.63;1.00;;;6.60;99.90;;;;;;5113341;28;20453;-59
2021/12/15 08:43:03;;;;;;;1.90;1.10;;;6.60;99.90;;;;;;5112850;28;20472;-61
2021/12/15 08:45:32;;;;;;;3.70;0.90;;;6.60;99.90;;;;;;5113924;28;20906;-60
2021/12/15 08:48:00;;;;;;;1.67;0.70;;;6.50;99.90;;;;;;5092902;28;20894;-60
2021/12/15 08:50:32;;;;;;;7.33;1.10;;;6.60;99.90;;;;;;5112380;28;20496;-60
2021/12/15 08:53:01;;;;;;;1.70;0.90;;;6.60;99.90;;;;;;5110107;28;20476;-60
2021/12/15 08:55:31;;;;;;;2.00;0.90;;;6.60;99.90;;;;;;5114178;28;20452;-60
2021/12/15 08:58:04;;;;;;;1.47;0.90;;;6.70;99.90;;;;;;5110291;28;20532;-60
2021/12/15 09:00:32;;;;;;;1.60;0.87;;;6.70;99.90;;;;;;5110940;28;20573;-60
2021/12/15 09:03:00;;;;;;;1.30;0.80;;;6.70;99.90;;;;;;5112672;28;20781;-61
2021/12/15 09:05:31;;;;;;;1.20;0.77;;;6.70;99.90;;;;;;5114173;28;20501;-61
2021/12/15 09:08:00;;;;;;;1.80;1.00;;;6.70;99.90;;;;;;5113539;28;20886;-60
2021/12/15 09:10:30;;;;;;;1.67;0.90;;;6.70;99.90;;;;;;5115068;28;20472;-62
2021/12/15 09:12:58;;;;;;;3.77;1.10;;;6.70;99.90;;;;;;5113008;28;20788;-60
2021/12/15 09:15:25;;;;;;;1.80;0.77;;;6.70;99.90;;;;;;5112635;28;20818;-60
2021/12/15 09:17:53;;;;;;;5.27;1.10;;;6.70;99.90;;;;;;5120755;28;20770;-60
2021/12/15 09:20:25;;;;;;;1.90;0.80;;;6.70;99.90;;;;;;5124207;28;20445;-60
2021/12/15 09:22:54;;;;;;;1.80;0.90;;;6.80;99.90;;;;;;5111865;28;20484;-62
2021/12/15 09:25:21;;;;;;;3.23;1.10;;;6.80;99.90;;;;;;5112647;28;20939;-60
2021/12/15 09:27:48;;;;;;;1.80;0.90;;;6.80;99.90;;;;;;5108746;28;20533;-60
2021/12/15 09:30:19;;;;;;;1.90;0.90;;;6.90;99.90;;;;;;5110196;28;20686;-60
2021/12/15 09:32:51;;;;;;;2.63;0.90;;;6.80;99.90;;;;;;5111684;28;20476;-61
2021/12/15 09:35:20;;;;;;;1.43;0.70;;;6.70;99.90;;;;;;5112418;28;20448;-61
2021/12/15 09:37:50;;;;;;;1.70;0.90;;;6.60;99.90;;;;;;5110658;28;20486;-59
2021/12/15 09:40:20;;;;;;;2.60;1.00;;;6.70;99.90;;;;;;5111747;28;20479;-61
2021/12/15 09:42:48;;;;;;;1.47;0.80;;;6.80;99.90;;;;;;5111043;28;20521;-61
2021/12/15 09:45:33;;;;;;;1.53;0.80;;;6.70;99.90;;;;;;5111230;28;20480;-61
2021/12/15 09:56:22;;;;;;;3.20;0.83;;;6.70;99.90;;;;;;5112492;28;20887;-61
2021/12/15 09:57:07;;;;;;;1.80;1.00;;;6.70;99.90;;;;;;5118169;28;20440;-61
2021/12/15 10:02:37;;;;;;;1.23;0.70;;;6.80;99.90;;;;;;5118373;28;20524;-61
2021/12/15 10:05:16;;;;;;;1.40;0.70;;;6.60;99.90;;;;;;5115159;28;20470;-61
2021/12/15 10:10:47;;;;;;;1.50;0.70;;;6.60;99.90;;;;;;5103141;27;20873;-60
2021/12/15 10:18:53;;;;;;;1.00;0.60;;;6.80;99.90;;;;;;5115194;28;20503;-61
2021/12/15 10:21:24;;;;;;;1.90;0.70;;;6.80;99.90;;;;;;5115744;28;20444;-60
2021/12/15 10:23:52;;;;;;;5.43;0.80;;;6.90;99.90;;;;;;5114775;28;20555;-60
2021/12/15 10:26:21;;;;;;;1.43;0.73;;;7.00;99.90;;;;;;5114464;28;20496;-60
2021/12/15 10:28:52;;;;;;;1.60;1.00;;;6.90;99.90;;;;;;5114933;28;20821;-61
2021/12/15 10:31:21;;;;;;;1.80;0.93;;;6.90;99.90;;;;;;5115871;28;20494;-60
2021/12/15 10:33:52;;;;;;;2.13;0.93;;;6.90;99.90;;;;;;5112738;28;20453;-55
2021/12/15 10:36:24;;;;;;;2.20;0.90;;;6.90;99.90;;;;;;5112315;28;20445;-58
2021/12/15 10:38:53;;;;;;;1.50;0.90;;;6.90;99.90;;;;;;5110138;28;20616;-58
2021/12/15 10:41:25;;;;;;;1.47;1.00;;;6.80;99.90;;;;;;5112730;28;20454;-56
2021/12/15 10:43:55;;;;;;;3.00;0.90;;;6.80;99.90;;;;;;5110806;28;20563;-57
2021/12/15 10:46:25;;;;;;;6.73;1.30;;;6.70;99.90;;;;;;5110915;28;20448;-56
2021/12/15 10:48:58;;;;;;;1.90;0.97;;;6.70;99.90;;;;;;5116843;28;20496;-58
2021/12/15 10:51:34;;;;;;;3.30;1.00;;;6.70;99.90;;;;;;5117894;28;20549;-57
2021/12/15 10:54:04;;;;;;;5.77;1.40;;;6.70;99.90;;;;;;5118377;28;20448;-58
2021/12/15 10:56:36;;;;;;;1.73;0.90;;;6.70;99.90;;;;;;5116509;28;20476;-58
2021/12/15 10:59:06;;;;;;;4.37;1.50;;;6.70;99.90;;;;;;5112846;28;20468;-52
2021/12/15 11:01:42;;;;;;;1.53;0.80;;;6.70;99.90;;;;;;5113797;28;20867;-56
2021/12/15 11:04:33;;;;;;;3.37;1.20;;;6.70;99.90;;;;;;5111522;28;20476;-55
2021/12/15 11:07:29;;;;;;;2.70;1.00;;;6.60;99.90;;;;;;5113125;28;20445;-56
2021/12/15 11:10:06;;;;;;;3.27;1.10;;;6.70;99.90;;;;;;5109697;28;20452;-55
2021/12/15 11:12:41;;;;;;;1.63;1.00;;;6.60;99.90;;;;;;5115681;28;20501;-54
2021/12/15 11:15:12;;;;;;;1.50;1.00;;;6.60;99.90;;;;;;5112662;28;20458;-56
2021/12/15 11:17:42;;;;;;;1.70;0.80;;;6.60;99.90;;;;;;5112219;28;20437;-53
2021/12/15 11:20:13;;;;;;;1.30;0.70;;;6.50;99.90;;;;;;5108972;28;20580;-55
2021/12/15 11:22:46;;;;;;;2.47;1.50;;;6.50;99.90;;;;;;5112282;28;20601;-54
2021/12/15 11:25:22;;;;;;;2.57;1.10;;;6.50;99.90;;;;;;5110327;28;20539;-55
2021/12/15 11:27:55;;;;;;;3.37;1.30;;;6.50;99.90;;;;;;5111205;28;20444;-56
2021/12/15 11:30:28;;;;;;;5.10;1.77;;;6.50;99.90;;;;;;5111007;28;20472;-56
2021/12/15 11:32:57;;;;;;;2.33;1.20;;;6.40;99.90;;;;;;5114917;28;20453;-56
2021/12/15 11:35:35;;;;;;;13.37;7.93;;;6.50;99.90;;;;;;5101718;28;20492;-53
2021/12/15 11:38:06;;;;;;;2.90;1.00;;;6.50;99.90;;;;;;5114588;28;20456;-55
2021/12/15 11:40:40;;;;;;;4.67;1.40;;;6.50;99.90;;;;;;5112437;28;20524;-53
2021/12/15 11:43:12;;;;;;;2.80;1.23;;;6.50;99.90;;;;;;5116828;27;20488;-55
2021/12/15 11:45:54;;;;;;;1.50;0.80;;;6.50;99.90;;;;;;5110678;28;20445;-56
2021/12/15 11:48:25;;;;;;;3.33;0.90;;;6.60;99.90;;;;;;5109671;28;20870;-56
2021/12/15 11:50:55;;;;;;;1.53;0.90;;;6.60;99.90;;;;;;5111074;28;20785;-54
2021/12/15 11:53:35;;;;;;;1.80;1.00;;;6.60;99.90;;;;;;5111118;28;20795;-53
2021/12/15 11:56:37;;;;;;;1.33;0.90;;;6.50;99.90;;;;;;5109964;27;20444;-53
2021/12/15 11:59:23;;;;;;;3.13;1.23;;;6.50;99.90;;;;;;5110430;28;21006;-55
2021/12/15 12:02:05;;;;;;;2.33;0.70;;;6.50;99.90;;;;;;5108268;28;20444;-54
2021/12/15 12:04:40;;;;;;;2.07;1.10;;;6.60;99.90;;;;;;5110147;28;20481;-54
2021/12/15 12:07:23;;;;;;;3.40;1.50;;;6.50;99.90;;;;;;5110748;28;20764;-56
2021/12/15 12:09:54;;;;;;;1.27;0.77;;;6.50;99.90;;;;;;5112461;28;20444;-56
2021/12/15 12:12:26;;;;;;;1.80;0.93;;;6.60;99.90;;;;;;5112994;28;20863;-54
2021/12/15 12:14:55;;;;;;;1.93;0.80;;;6.60;99.90;;;;;;5113401;28;20456;-53
2021/12/15 12:17:26;;;;;;;1.77;0.90;;;6.70;99.90;;;;;;5115320;28;20455;-55
2021/12/15 12:19:56;;;;;;;2.80;1.17;;;7.00;99.90;;;;;;5115497;28;20565;-57
2021/12/15 12:22:26;;;;;;;2.00;1.50;;;7.00;99.90;;;;;;5115442;28;20498;-57
2021/12/15 12:24:59;;;;;;;2.30;1.10;;;6.80;99.90;;;;;;5115469;28;20476;-51
2021/12/15 12:27:32;;;;;;;1.67;1.00;;;6.80;99.90;;;;;;5114552;28;20440;-55
2021/12/15 12:30:09;;;;;;;2.13;1.10;;;6.70;99.90;;;;;;5109053;28;20470;-54
2021/12/15 12:32:37;;;;;;;1.67;1.00;;;6.70;99.90;;;;;;5113571;28;20444;-55
2021/12/15 12:35:08;;;;;;;2.50;1.20;;;6.70;99.90;;;;;;5112364;27;20927;-56
2021/12/15 12:37:36;;;;;;;1.47;0.80;;;6.70;99.90;;;;;;5132884;27;20495;-56
2021/12/15 12:40:18;;;;;;;2.27;1.00;;;6.90;99.90;;;;;;5119554;27;20499;-54
2021/12/15 12:42:46;;;;;;;4.27;1.40;;;7.00;99.90;;;;;;5111709;28;20441;-55
2021/12/15 12:45:39;;;;;;;3.17;1.10;;;7.10;99.90;;;;;;5111856;28;20483;-54
2021/12/15 12:59:58;;;;;;;1.93;1.13;;;6.60;99.90;;;;;;5111471;28;20466;-52
2021/12/15 13:02:51;;;;;;;1.50;0.97;;;6.90;99.90;;;;;;5108343;28;20465;-53
2021/12/15 13:05:37;;;;;;;1.57;0.90;;;6.90;99.90;;;;;;5104575;28;20454;-57
2021/12/15 13:08:08;;;;;;;1.50;0.87;;;6.70;99.90;;;;;;5110310;28;20846;-57
2021/12/15 13:11:16;;;;;;;2.20;1.17;;;6.60;99.90;;;;;;5110637;28;20531;-57
2021/12/15 13:14:01;;;;;;;2.30;1.10;;;6.50;99.90;;;;;;5112303;28;20452;-55
2021/12/15 13:16:38;;;;;;;3.97;1.10;;;6.50;99.90;;;;;;5092724;28;20432;-56
2021/12/15 13:19:15;;;;;;;1.87;1.00;;;6.50;99.90;;;;;;5107854;28;20447;-56
2021/12/15 13:22:18;;;;;;;1.20;0.80;;;6.40;99.90;;;;;;5109110;28;20472;-57
2021/12/15 13:30:46;;;;;;;1.40;1.00;;;6.30;99.90;;;;;;5115189;27;20424;-53
2021/12/15 13:33:17;;;;;;;2.93;1.47;;;6.30;99.90;;;;;;5118358;27;20441;-55
2021/12/15 13:35:51;;;;;;;2.63;1.10;;;6.20;99.90;;;;;;5116855;27;20883;-53
2021/12/15 13:38:24;;;;;;;6.33;1.67;;;6.20;99.90;;;;;;5119874;27;20475;-53
2021/12/15 13:41:10;;;;;;;1.70;0.90;;;6.20;99.90;;;;;;5116131;27;20503;-55
2021/12/15 13:43:42;;;;;;;2.00;1.10;;;6.20;99.90;;;;;;5103032;28;20453;-55
2021/12/15 13:46:23;;;;;;;1.60;1.10;;;6.30;99.90;;;;;;5135269;27;20440;-54
2021/12/15 13:49:07;;;;;;;2.47;1.03;;;6.20;99.90;;;;;;5127509;27;20555;-55
2021/12/15 13:52:06;;;;;;;1.70;1.03;;;6.30;99.90;;;;;;5111604;28;20490;-55
2021/12/15 13:55:05;;;;;;;1.60;1.13;;;6.30;99.90;;;;;;5101760;28;20444;-54
2021/12/15 13:57:36;;;;;;;1.20;0.90;;;6.30;99.90;;;;;;5115426;28;20548;-54
2021/12/15 14:00:38;;;;;;;2.43;1.10;;;6.30;99.90;;;;;;5113691;28;20512;-53
2021/12/15 14:03:13;;;;;;;1.70;0.93;;;6.30;99.90;;;;;;5030586;28;20538;-54
2021/12/15 14:05:43;;;;;;;1.50;1.00;;;6.20;99.90;;;;;;5043820;28;20467;-55
2021/12/15 14:08:26;;;;;;;1.93;1.10;;;6.30;99.90;;;;;;5103265;28;20479;-51
2021/12/15 14:11:10;;;;;;;1.27;1.10;;;6.30;99.90;;;;;;5114022;28;20436;-52
2021/12/15 14:13:44;;;;;;;3.33;1.00;;;6.30;99.90;;;;;;5108490;28;20484;-52
2021/12/15 14:16:49;;;;;;;2.00;0.93;;;6.30;99.90;;;;;;5114807;28;20531;-51
2021/12/15 14:19:26;;;;;;;1.50;1.07;;;6.30;99.90;;;;;;5115855;28;20917;-52
2021/12/15 14:22:00;;;;;;;1.73;1.10;;;6.30;99.90;;;;;;5115696;28;20441;-50
2021/12/15 14:24:28;;;;;;;1.47;1.00;;;6.30;99.90;;;;;;5114758;28;20765;-51